Zim Pacific — A8OZ4 — position and weather

sailwx.info

Track history (hours):
 
Tides and Currents Weather Stations Pressure Air Temp Water Temp Dewpoint Dewpoint Depression Visibility Wind Speed Wind Dir Waves Ship Positions

Zim Pacific

Last reported at 2015-Apr-16 00:33 UTC. Time now 2015-Apr-28 11:57 UTC.
Position N 01°52' E 102°24'.
Warning: this ship's position is 12 days out of date.

Length 254 m; draft 10.6 m.

Type: Ship. MMSI: 636016512.

Date/timePositionNaut miles runAvg speedWind from/ knotsBaromVisibWave heightAir tempDewpointWater temp
2015-Apr-16 00:33N 01°52' E 102°24'1616.2
2015-Apr-15 23:33N 01°46' E 102°39'1615.9
2015-Apr-15 22:32N 01°38' E 102°53'5116.0
2015-Apr-15 19:19N 01°11' E 103°37'1215.0
2015-Apr-15 18:32N 01°11' E 103°49'6 2.7
2015-Apr-15 16:25N 01°14' E 103°53'0 0.0
2015-Apr-15 15:30N 01°14' E 103°53'0 0.0
2015-Apr-15 14:30N 01°14' E 103°53'0 0.1
2015-Apr-15 13:27N 01°14' E 103°53'0 0.0
2015-Apr-15 12:29N 01°14' E 103°53'3 2.8
2015-Apr-15 11:33N 01°16' E 103°51'1 0.6
2015-Apr-15 10:32N 01°16' E 103°50'0 0.0
2015-Apr-15 09:31N 01°16' E 103°50'0 0.0
2015-Apr-15 08:31N 01°16' E 103°50'0 0.0
2015-Apr-15 07:32N 01°16' E 103°50'0 0.0
2015-Apr-15 06:32N 01°16' E 103°50'0 0.1
2015-Apr-15 05:32N 01°16' E 103°50'0 0.0
2015-Apr-15 04:31N 01°16' E 103°50'0 0.0
2015-Apr-15 03:31N 01°16' E 103°50'0 0.1
2015-Apr-15 02:28N 01°16' E 103°50'0 0.5
2015-Apr-15 01:33N 01°16' E 103°51'4 3.8
2015-Apr-15 00:33N 01°13' E 103°54'5 4.8
2015-Apr-14 23:33N 01°15' E 103°58'3 3.0
2015-Apr-14 22:33N 01°16' E 104°01'4 3.5
2015-Apr-14 21:31N 01°16' E 104°05'6 6.1
2015-Apr-14 20:32N 01°17' E 104°11'10 7.1
2015-Apr-14 19:12N 01°19' E 104°20'  
2015-Apr-11 05:19N 51°29' E 002°14'5644465.8
2015-Apr-10 17:12N 22°07' E 113°51'812.8
2015-Apr-10 16:33N 22°15' E 113°48'1413.1
2015-Apr-10 15:29N 22°29' E 113°45'11 1.0
2015-Apr-10 04:33N 22°39' E 113°41'0 0.2
2015-Apr-10 03:34N 22°39' E 113°41'1212.1
2015-Apr-10 02:33N 22°27' E 113°45'1414.3
2015-Apr-10 01:34N 22°13' E 113°49'10 9.4
2015-Apr-10 00:31N 22°04' E 113°51'1110.8
2015-Apr-09 23:30N 21°58' E 114°01'1814.9
2015-Apr-09 22:19N 21°58' E 114°20'1214.9
2015-Apr-09 21:31N 22°02' E 114°32'22814.8
2015-Apr-09 06:03N 23°41' E 118°15'1114.7
2015-Apr-09 05:19N 23°48' E 118°24'4214.9
2015-Apr-09 02:28N 24°17' E 118°58'1614.9
2015-Apr-09 01:24N 24°27' E 119°12'34214.7
2015-Apr-08 02:07N 29°20' E 122°28'1015.3
2015-Apr-08 01:27N 29°30' E 122°33'1314.5
2015-Apr-08 00:33N 29°41' E 122°26'1312.9
2015-Apr-07 23:33N 29°49' E 122°14'1111.4
2015-Apr-07 22:33N 29°55' E 122°03'1111.1
2015-Apr-07 21:33N 29°57' E 121°50'0 0.3
2015-Apr-07 20:26N 29°57' E 121°50'0 0.0
2015-Apr-07 19:32N 29°57' E 121°50'0 0.0
2015-Apr-07 18:13N 29°57' E 121°50'0 0.0
2015-Apr-07 17:25N 29°57' E 121°50'0 0.0
2015-Apr-07 16:31N 29°57' E 121°50'0 0.0
2015-Apr-07 14:24N 29°57' E 121°50'0 0.0
2015-Apr-07 12:29N 29°57' E 121°50'0 0.1
2015-Apr-07 11:33N 29°57' E 121°50'1 0.8
2015-Apr-07 10:33N 29°57' E 121°51'8 7.6
2015-Apr-07 09:33N 29°57' E 121°60'1010.3
2015-Apr-07 08:34N 29°54' E 122°11'9 9.3
2015-Apr-07 07:33N 29°46' E 122°18'9 9.1
2015-Apr-07 06:33N 29°44' E 122°28'1111.4
2015-Apr-07 05:33N 29°48' E 122°40'80 8.0
2015-Apr-06 19:33N 31°06' E 122°21'1312.9
2015-Apr-06 18:34N 31°12' E 122°08'1414.0
2015-Apr-06 17:33N 31°16' E 121°52'1010.3
2015-Apr-06 16:33N 31°20' E 121°41'5 5.3
2015-Apr-06 15:32N 31°22' E 121°35'0 0.0
2015-Apr-06 14:33N 31°22' E 121°35'0 0.0
2015-Apr-06 13:33N 31°22' E 121°35'0 0.0
2015-Apr-06 12:32N 31°22' E 121°35'0 0.0
2015-Apr-06 11:33N 31°22' E 121°35'0 0.0
2015-Apr-06 10:32N 31°22' E 121°35'0 0.0
2015-Apr-06 09:33N 31°22' E 121°35'0 0.0
2015-Apr-06 08:28N 31°22' E 121°35'0 0.0
2015-Apr-06 07:33N 31°22' E 121°35'0 0.0
2015-Apr-06 06:33N 31°22' E 121°35'0 0.0
2015-Apr-06 05:32N 31°22' E 121°35'0 0.0
2015-Apr-06 04:30N 31°22' E 121°35'0 0.0
2015-Apr-06 03:32N 31°22' E 121°35'0 0.0
2015-Apr-06 02:30N 31°22' E 121°35'0 0.0
2015-Apr-06 01:30N 31°22' E 121°35'  
Track history (hours):
 
Tides and Currents Weather Stations Pressure Air Temp Water Temp Dewpoint Dewpoint Depression Visibility Wind Speed Wind Dir Waves Ship Positions

Zim Pacific

Last reported at 2015-Apr-16 00:33 UTC. Time now 2015-Apr-28 11:57 UTC.
Position N 01°52' E 102°24'.
Warning: this ship's position is 12 days out of date.

Length 254 m; draft 10.6 m.

Type: Ship. MMSI: 636016512.

Date/timePositionNaut miles runAvg speedWind from/ knotsBaromVisibWave heightAir tempDewpointWater temp
2015-Apr-16 00:33N 01°52' E 102°24'1616.2
2015-Apr-15 23:33N 01°46' E 102°39'1615.9
2015-Apr-15 22:32N 01°38' E 102°53'5116.0
2015-Apr-15 19:19N 01°11' E 103°37'1215.0
2015-Apr-15 18:32N 01°11' E 103°49'6 2.7
2015-Apr-15 16:25N 01°14' E 103°53'0 0.0
2015-Apr-15 15:30N 01°14' E 103°53'0 0.0
2015-Apr-15 14:30N 01°14' E 103°53'0 0.1
2015-Apr-15 13:27N 01°14' E 103°53'0 0.0
2015-Apr-15 12:29N 01°14' E 103°53'3 2.8
2015-Apr-15 11:33N 01°16' E 103°51'1 0.6
2015-Apr-15 10:32N 01°16' E 103°50'0 0.0
2015-Apr-15 09:31N 01°16' E 103°50'0 0.0
2015-Apr-15 08:31N 01°16' E 103°50'0 0.0
2015-Apr-15 07:32N 01°16' E 103°50'0 0.0
2015-Apr-15 06:32N 01°16' E 103°50'0 0.1
2015-Apr-15 05:32N 01°16' E 103°50'0 0.0
2015-Apr-15 04:31N 01°16' E 103°50'0 0.0
2015-Apr-15 03:31N 01°16' E 103°50'0 0.1
2015-Apr-15 02:28N 01°16' E 103°50'0 0.5
2015-Apr-15 01:33N 01°16' E 103°51'4 3.8
2015-Apr-15 00:33N 01°13' E 103°54'5 4.8
2015-Apr-14 23:33N 01°15' E 103°58'3 3.0
2015-Apr-14 22:33N 01°16' E 104°01'4 3.5
2015-Apr-14 21:31N 01°16' E 104°05'6 6.1
2015-Apr-14 20:32N 01°17' E 104°11'10 7.1
2015-Apr-14 19:12N 01°19' E 104°20'  
2015-Apr-11 05:19N 51°29' E 002°14'5644465.8
2015-Apr-10 17:12N 22°07' E 113°51'812.8
2015-Apr-10 16:33N 22°15' E 113°48'1413.1
2015-Apr-10 15:29N 22°29' E 113°45'11 1.0
2015-Apr-10 04:33N 22°39' E 113°41'0 0.2
2015-Apr-10 03:34N 22°39' E 113°41'1212.1
2015-Apr-10 02:33N 22°27' E 113°45'1414.3
2015-Apr-10 01:34N 22°13' E 113°49'10 9.4
2015-Apr-10 00:31N 22°04' E 113°51'1110.8
2015-Apr-09 23:30N 21°58' E 114°01'1814.9
2015-Apr-09 22:19N 21°58' E 114°20'1214.9
2015-Apr-09 21:31N 22°02' E 114°32'22814.8
2015-Apr-09 06:03N 23°41' E 118°15'1114.7
2015-Apr-09 05:19N 23°48' E 118°24'4214.9
2015-Apr-09 02:28N 24°17' E 118°58'1614.9
2015-Apr-09 01:24N 24°27' E 119°12'34214.7
2015-Apr-08 02:07N 29°20' E 122°28'1015.3
2015-Apr-08 01:27N 29°30' E 122°33'1314.5
2015-Apr-08 00:33N 29°41' E 122°26'1312.9
2015-Apr-07 23:33N 29°49' E 122°14'1111.4
2015-Apr-07 22:33N 29°55' E 122°03'1111.1
2015-Apr-07 21:33N 29°57' E 121°50'0 0.3
2015-Apr-07 20:26N 29°57' E 121°50'0 0.0
2015-Apr-07 19:32N 29°57' E 121°50'0 0.0
2015-Apr-07 18:13N 29°57' E 121°50'0 0.0
2015-Apr-07 17:25N 29°57' E 121°50'0 0.0
2015-Apr-07 16:31N 29°57' E 121°50'0 0.0
2015-Apr-07 14:24N 29°57' E 121°50'0 0.0
2015-Apr-07 12:29N 29°57' E 121°50'0 0.1
2015-Apr-07 11:33N 29°57' E 121°50'1 0.8
2015-Apr-07 10:33N 29°57' E 121°51'8 7.6
2015-Apr-07 09:33N 29°57' E 121°60'1010.3
2015-Apr-07 08:34N 29°54' E 122°11'9 9.3
2015-Apr-07 07:33N 29°46' E 122°18'9 9.1
2015-Apr-07 06:33N 29°44' E 122°28'1111.4
2015-Apr-07 05:33N 29°48' E 122°40'80 8.0
2015-Apr-06 19:33N 31°06' E 122°21'1312.9
2015-Apr-06 18:34N 31°12' E 122°08'1414.0
2015-Apr-06 17:33N 31°16' E 121°52'1010.3
2015-Apr-06 16:33N 31°20' E 121°41'5 5.3
2015-Apr-06 15:32N 31°22' E 121°35'0 0.0
2015-Apr-06 14:33N 31°22' E 121°35'0 0.0
2015-Apr-06 13:33N 31°22' E 121°35'0 0.0
2015-Apr-06 12:32N 31°22' E 121°35'0 0.0
2015-Apr-06 11:33N 31°22' E 121°35'0 0.0
2015-Apr-06 10:32N 31°22' E 121°35'0 0.0
2015-Apr-06 09:33N 31°22' E 121°35'0 0.0
2015-Apr-06 08:28N 31°22' E 121°35'0 0.0
2015-Apr-06 07:33N 31°22' E 121°35'0 0.0
2015-Apr-06 06:33N 31°22' E 121°35'0 0.0
2015-Apr-06 05:32N 31°22' E 121°35'0 0.0
2015-Apr-06 04:30N 31°22' E 121°35'0 0.0
2015-Apr-06 03:32N 31°22' E 121°35'0 0.0
2015-Apr-06 02:30N 31°22' E 121°35'0 0.0
2015-Apr-06 01:30N 31°22' E 121°35'  

Dump ship's entire track history